sensor_id;sensor_type;location;lat;lon;timestamp;pressure;altitude;pressure_sealevel;temperature;humidity
34237;BME280;20501;45.956;13.632;2023-02-11T00:03:50;102624.22;;;9.07;36.76
34237;BME280;20501;45.956;13.632;2023-02-11T00:06:16;102627.44;;;6.86;40.04
34237;BME280;20501;45.956;13.632;2023-02-11T00:08:41;102629.91;;;7.72;39.96
34237;BME280;20501;45.956;13.632;2023-02-11T00:11:13;102629.75;;;7.94;39.13
34237;BME280;20501;45.956;13.632;2023-02-11T00:13:40;102633.97;;;3.78;46.28
34237;BME280;20501;45.956;13.632;2023-02-11T00:16:11;102632.66;;;2.25;46.05
34237;BME280;20501;45.956;13.632;2023-02-11T00:18:37;102634.91;;;4.07;48.74
34237;BME280;20501;45.956;13.632;2023-02-11T00:21:16;102615.59;;;6.47;42.33
34237;BME280;20501;45.956;13.632;2023-02-11T00:23:43;102631.78;;;7.70;36.90
34237;BME280;20501;45.956;13.632;2023-02-11T00:26:26;102619.25;;;6.89;41.32
34237;BME280;20501;45.956;13.632;2023-02-11T00:28:52;102618.94;;;8.15;38.42
34237;BME280;20501;45.956;13.632;2023-02-11T00:31:20;102615.06;;;7.23;39.21
34237;BME280;20501;45.956;13.632;2023-02-11T00:33:45;102624.13;;;8.37;38.19
34237;BME280;20501;45.956;13.632;2023-02-11T00:36:24;102616.19;;;5.64;38.03
34237;BME280;20501;45.956;13.632;2023-02-11T00:38:51;102623.97;;;2.16;46.81
34237;BME280;20501;45.956;13.632;2023-02-11T00:41:17;102624.66;;;4.48;47.30
34237;BME280;20501;45.956;13.632;2023-02-11T00:43:43;102622.59;;;5.83;41.96
34237;BME280;20501;45.956;13.632;2023-02-11T00:46:09;102620.69;;;6.76;38.81
34237;BME280;20501;45.956;13.632;2023-02-11T00:48:34;102615.88;;;6.84;37.96
34237;BME280;20501;45.956;13.632;2023-02-11T00:51:00;102613.63;;;7.75;38.98
34237;BME280;20501;45.956;13.632;2023-02-11T00:53:26;102624.97;;;8.20;38.65
34237;BME280;20501;45.956;13.632;2023-02-11T00:55:51;102623.78;;;6.22;40.65
34237;BME280;20501;45.956;13.632;2023-02-11T00:58:17;102621.53;;;6.99;40.73
34237;BME280;20501;45.956;13.632;2023-02-11T01:00:42;102619.19;;;8.28;38.04
34237;BME280;20501;45.956;13.632;2023-02-11T01:06:29;102612.75;;;8.13;38.64
34237;BME280;20501;45.956;13.632;2023-02-11T01:08:54;102615.31;;;7.97;38.60
34237;BME280;20501;45.956;13.632;2023-02-11T01:11:21;102614.50;;;5.12;39.87
34237;BME280;20501;45.956;13.632;2023-02-11T01:13:48;102608.38;;;6.49;39.83
34237;BME280;20501;45.956;13.632;2023-02-11T01:16:13;102613.13;;;7.46;39.58
34237;BME280;20501;45.956;13.632;2023-02-11T01:18:54;102602.94;;;8.12;38.37
34237;BME280;20501;45.956;13.632;2023-02-11T01:21:19;102606.22;;;8.36;37.70
34237;BME280;20501;45.956;13.632;2023-02-11T01:23:45;102600.81;;;7.80;38.90
34237;BME280;20501;45.956;13.632;2023-02-11T01:26:10;102600.81;;;8.18;37.75
34237;BME280;20501;45.956;13.632;2023-02-11T01:28:36;102601.59;;;5.23;37.84
34237;BME280;20501;45.956;13.632;2023-02-11T01:31:01;102595.50;;;1.78;49.63
34237;BME280;20501;45.956;13.632;2023-02-11T01:33:27;102603.53;;;3.82;43.94
34237;BME280;20501;45.956;13.632;2023-02-11T01:35:53;102599.41;;;6.71;40.96
34237;BME280;20501;45.956;13.632;2023-02-11T01:38:23;102596.22;;;6.61;41.46
34237;BME280;20501;45.956;13.632;2023-02-11T01:41:04;102588.47;;;6.76;36.95
34237;BME280;20501;45.956;13.632;2023-02-11T01:43:35;102585.69;;;7.97;38.54
34237;BME280;20501;45.956;13.632;2023-02-11T01:46:37;102586.66;;;8.51;37.42
34237;BME280;20501;45.956;13.632;2023-02-11T01:49:10;102589.81;;;4.77;43.38
34237;BME280;20501;45.956;13.632;2023-02-11T01:51:43;102584.00;;;4.09;47.75
34237;BME280;20501;45.956;13.632;2023-02-11T01:54:14;102584.09;;;4.34;44.33
34237;BME280;20501;45.956;13.632;2023-02-11T01:57:01;102583.84;;;4.42;45.54
34237;BME280;20501;45.956;13.632;2023-02-11T02:02:14;102573.72;;;5.27;44.97
34237;BME280;20501;45.956;13.632;2023-02-11T02:04:54;102575.72;;;7.61;39.84
34237;BME280;20501;45.956;13.632;2023-02-11T02:07:32;102569.19;;;8.41;37.52
34237;BME280;20501;45.956;13.632;2023-02-11T02:10:08;102565.47;;;3.44;45.79
34237;BME280;20501;45.956;13.632;2023-02-11T02:12:35;102562.66;;;6.72;40.37
34237;BME280;20501;45.956;13.632;2023-02-11T02:15:22;102562.22;;;6.82;40.23
34237;BME280;20501;45.956;13.632;2023-02-11T02:31:53;102550.44;;;6.22;41.74
34237;BME280;20501;45.956;13.632;2023-02-11T02:34:39;102549.09;;;8.12;38.34
34237;BME280;20501;45.956;13.632;2023-02-11T02:37:23;102550.88;;;8.11;37.98
34237;BME280;20501;45.956;13.632;2023-02-11T02:39:50;102545.88;;;8.40;37.98
34237;BME280;20501;45.956;13.632;2023-02-11T02:42:17;102554.75;;;8.42;37.83
34237;BME280;20501;45.956;13.632;2023-02-11T02:44:48;102544.50;;;8.50;37.57
34237;BME280;20501;45.956;13.632;2023-02-11T02:47:13;102537.63;;;8.43;37.66
34237;BME280;20501;45.956;13.632;2023-02-11T02:49:39;102542.59;;;8.70;37.26
34237;BME280;20501;45.956;13.632;2023-02-11T03:00:16;102537.03;;;8.01;36.51
34237;BME280;20501;45.956;13.632;2023-02-11T03:03:21;102535.13;;;8.40;37.98
34237;BME280;20501;45.956;13.632;2023-02-11T03:06:02;102543.63;;;8.67;37.40
34237;BME280;20501;45.956;13.632;2023-02-11T03:11:04;102533.09;;;7.89;39.20
34237;BME280;20501;45.956;13.632;2023-02-11T03:13:33;102536.41;;;8.50;37.92
34237;BME280;20501;45.956;13.632;2023-02-11T03:16:06;102524.28;;;7.09;39.66
34237;BME280;20501;45.956;13.632;2023-02-11T03:18:34;102530.28;;;8.47;38.06
34237;BME280;20501;45.956;13.632;2023-02-11T03:21:02;102517.69;;;8.65;37.54
34237;BME280;20501;45.956;13.632;2023-02-11T03:29:02;102518.09;;;8.75;37.13
34237;BME280;20501;45.956;13.632;2023-02-11T03:31:36;102514.13;;;8.82;37.16
34237;BME280;20501;45.956;13.632;2023-02-11T03:34:12;102512.78;;;8.56;37.81
34237;BME280;20501;45.956;13.632;2023-02-11T03:36:47;102509.06;;;8.76;37.25
34237;BME280;20501;45.956;13.632;2023-02-11T03:39:20;102501.84;;;8.04;38.54
34237;BME280;20501;45.956;13.632;2023-02-11T03:41:48;102500.41;;;8.34;38.03
34237;BME280;20501;45.956;13.632;2023-02-11T03:44:16;102503.28;;;8.66;37.56
34237;BME280;20501;45.956;13.632;2023-02-11T03:46:44;102503.66;;;8.23;38.22
34237;BME280;20501;45.956;13.632;2023-02-11T03:49:14;102498.03;;;6.13;40.24
34237;BME280;20501;45.956;13.632;2023-02-11T03:51:41;102505.22;;;8.10;38.96
34237;BME280;20501;45.956;13.632;2023-02-11T03:54:14;102491.03;;;7.69;39.32
34237;BME280;20501;45.956;13.632;2023-02-11T03:56:52;102490.59;;;7.79;38.93
34237;BME280;20501;45.956;13.632;2023-02-11T03:59:18;102487.44;;;8.42;38.01
34237;BME280;20501;45.956;13.632;2023-02-11T04:01:43;102483.34;;;7.62;36.73
34237;BME280;20501;45.956;13.632;2023-02-11T04:04:09;102480.47;;;4.38;44.41
34237;BME280;20501;45.956;13.632;2023-02-11T04:06:34;102481.16;;;7.12;40.95
34237;BME280;20501;45.956;13.632;2023-02-11T04:09:00;102484.63;;;8.26;38.41
34237;BME280;20501;45.956;13.632;2023-02-11T04:11:25;102478.47;;;8.42;37.82
34237;BME280;20501;45.956;13.632;2023-02-11T04:13:51;102476.47;;;7.73;39.47
34237;BME280;20501;45.956;13.632;2023-02-11T04:16:16;102472.63;;;8.51;38.06
34237;BME280;20501;45.956;13.632;2023-02-11T04:18:41;102469.84;;;7.81;35.35
34237;BME280;20501;45.956;13.632;2023-02-11T04:21:07;102472.31;;;8.57;37.78
34237;BME280;20501;45.956;13.632;2023-02-11T04:23:33;102476.06;;;8.18;38.25
34237;BME280;20501;45.956;13.632;2023-02-11T04:25:59;102473.88;;;8.44;37.79
34237;BME280;20501;45.956;13.632;2023-02-11T04:28:24;102474.50;;;8.31;38.24
34237;BME280;20501;45.956;13.632;2023-02-11T04:30:53;102476.81;;;8.74;37.40
34237;BME280;20501;45.956;13.632;2023-02-11T04:33:19;102466.91;;;8.75;37.41
34237;BME280;20501;45.956;13.632;2023-02-11T04:35:44;102467.28;;;8.85;37.07
34237;BME280;20501;45.956;13.632;2023-02-11T04:38:10;102467.28;;;8.85;36.93
34237;BME280;20501;45.956;13.632;2023-02-11T04:40:35;102466.97;;;6.07;37.93
34237;BME280;20501;45.956;13.632;2023-02-11T04:43:00;102467.19;;;6.23;41.50
34237;BME280;20501;45.956;13.632;2023-02-11T04:45:26;102472.16;;;2.09;45.94
34237;BME280;20501;45.956;13.632;2023-02-11T04:47:51;102483.78;;;5.20;45.63
34237;BME280;20501;45.956;13.632;2023-02-11T04:50:17;102483.19;;;7.26;40.61
34237;BME280;20501;45.956;13.632;2023-02-11T04:52:42;102477.00;;;7.82;39.17
34237;BME280;20501;45.956;13.632;2023-02-11T04:55:07;102476.53;;;8.09;38.56
34237;BME280;20501;45.956;13.632;2023-02-11T04:57:33;102473.38;;;8.00;38.56
34237;BME280;20501;45.956;13.632;2023-02-11T04:59:58;102458.66;;;8.60;37.60
34237;BME280;20501;45.956;13.632;2023-02-11T05:02:24;102453.03;;;7.39;35.73
34237;BME280;20501;45.956;13.632;2023-02-11T05:04:49;102451.31;;;7.74;36.27
34237;BME280;20501;45.956;13.632;2023-02-11T05:07:14;102455.50;;;7.24;39.08
34237;BME280;20501;45.956;13.632;2023-02-11T05:09:40;102440.25;;;7.06;40.29
34237;BME280;20501;45.956;13.632;2023-02-11T05:12:05;102446.47;;;7.64;39.65
34237;BME280;20501;45.956;13.632;2023-02-11T05:14:31;102435.47;;;4.24;40.32
34237;BME280;20501;45.956;13.632;2023-02-11T05:16:57;102436.00;;;6.81;41.52
34237;BME280;20501;45.956;13.632;2023-02-11T05:19:22;102435.69;;;8.18;38.52
34237;BME280;20501;45.956;13.632;2023-02-11T05:21:48;102447.09;;;6.11;41.18
34237;BME280;20501;45.956;13.632;2023-02-11T05:24:13;102446.59;;;7.80;39.31
34237;BME280;20501;45.956;13.632;2023-02-11T05:26:39;102447.00;;;6.95;41.38
34237;BME280;20501;45.956;13.632;2023-02-11T05:29:04;102446.38;;;6.89;41.21
34237;BME280;20501;45.956;13.632;2023-02-11T05:31:29;102437.94;;;7.73;37.58
34237;BME280;20501;45.956;13.632;2023-02-11T05:33:55;102438.31;;;5.63;38.06
34237;BME280;20501;45.956;13.632;2023-02-11T05:36:20;102438.88;;;7.35;39.96
34237;BME280;20501;45.956;13.632;2023-02-11T05:38:45;102428.78;;;7.21;37.19
34237;BME280;20501;45.956;13.632;2023-02-11T05:41:11;102437.06;;;4.55;42.32
34237;BME280;20501;45.956;13.632;2023-02-11T05:43:36;102438.50;;;2.03;49.00
34237;BME280;20501;45.956;13.632;2023-02-11T05:46:03;102439.19;;;2.46;46.70
34237;BME280;20501;45.956;13.632;2023-02-11T05:48:29;102429.28;;;2.81;46.13
34237;BME280;20501;45.956;13.632;2023-02-11T05:50:55;102433.63;;;5.46;42.89
34237;BME280;20501;45.956;13.632;2023-02-11T05:53:21;102432.03;;;7.09;40.30
34237;BME280;20501;45.956;13.632;2023-02-11T05:55:46;102427.78;;;6.24;41.70
34237;BME280;20501;45.956;13.632;2023-02-11T05:58:12;102431.03;;;7.50;39.91
34237;BME280;20501;45.956;13.632;2023-02-11T06:00:37;102424.16;;;7.42;39.56
34237;BME280;20501;45.956;13.632;2023-02-11T06:03:03;102431.00;;;6.92;37.34
34237;BME280;20501;45.956;13.632;2023-02-11T06:05:29;102424.75;;;4.98;44.84
34237;BME280;20501;45.956;13.632;2023-02-11T06:07:54;102424.81;;;3.70;48.37
34237;BME280;20501;45.956;13.632;2023-02-11T06:10:20;102414.06;;;4.49;42.25
34237;BME280;20501;45.956;13.632;2023-02-11T06:12:45;102426.59;;;3.96;43.50
34237;BME280;20501;45.956;13.632;2023-02-11T06:15:11;102418.25;;;5.29;43.03
34237;BME280;20501;45.956;13.632;2023-02-11T06:17:36;102421.22;;;4.98;41.13
34237;BME280;20501;45.956;13.632;2023-02-11T06:20:03;102426.00;;;1.70;48.20
34237;BME280;20501;45.956;13.632;2023-02-11T06:22:29;102425.97;;;6.65;42.05
34237;BME280;20501;45.956;13.632;2023-02-11T06:24:55;102425.75;;;5.86;38.89
34237;BME280;20501;45.956;13.632;2023-02-11T06:27:20;102433.63;;;6.13;38.91
34237;BME280;20501;45.956;13.632;2023-02-11T06:29:46;102430.06;;;6.12;39.89
34237;BME280;20501;45.956;13.632;2023-02-11T06:32:12;102436.16;;;7.54;39.84
34237;BME280;20501;45.956;13.632;2023-02-11T06:34:38;102433.91;;;6.88;39.79
34237;BME280;20501;45.956;13.632;2023-02-11T06:37:04;102430.88;;;7.34;39.69
34237;BME280;20501;45.956;13.632;2023-02-11T06:39:29;102432.41;;;5.99;39.57
34237;BME280;20501;45.956;13.632;2023-02-11T06:41:54;102426.38;;;6.56;41.95
34237;BME280;20501;45.956;13.632;2023-02-11T06:44:20;102426.28;;;5.05;40.88
34237;BME280;20501;45.956;13.632;2023-02-11T06:46:46;102444.59;;;4.18;46.57
34237;BME280;20501;45.956;13.632;2023-02-11T06:49:11;102441.66;;;5.24;44.87
34237;BME280;20501;45.956;13.632;2023-02-11T06:51:37;102442.13;;;6.02;42.13
34237;BME280;20501;45.956;13.632;2023-02-11T06:54:04;102444.53;;;5.86;41.70
34237;BME280;20501;45.956;13.632;2023-02-11T06:56:30;102456.69;;;6.17;41.80
34237;BME280;20501;45.956;13.632;2023-02-11T06:58:56;102445.97;;;6.98;40.03
34237;BME280;20501;45.956;13.632;2023-02-11T07:01:23;102444.66;;;7.45;37.28
34237;BME280;20501;45.956;13.632;2023-02-11T07:03:48;102435.44;;;5.23;39.86
34237;BME280;20501;45.956;13.632;2023-02-11T07:06:17;102431.41;;;5.11;43.08
34237;BME280;20501;45.956;13.632;2023-02-11T07:08:44;102436.66;;;5.83;43.25
34237;BME280;20501;45.956;13.632;2023-02-11T07:11:14;102430.78;;;4.56;41.03
34237;BME280;20501;45.956;13.632;2023-02-11T07:13:40;102429.66;;;6.63;41.30
34237;BME280;20501;45.956;13.632;2023-02-11T07:16:07;102428.88;;;6.40;38.59
34237;BME280;20501;45.956;13.632;2023-02-11T07:18:33;102424.78;;;5.44;39.03
34237;BME280;20501;45.956;13.632;2023-02-11T07:20:58;102440.84;;;5.88;38.21
34237;BME280;20501;45.956;13.632;2023-02-11T07:23:24;102438.50;;;5.81;39.49
34237;BME280;20501;45.956;13.632;2023-02-11T07:25:49;102440.75;;;7.52;38.00
34237;BME280;20501;45.956;13.632;2023-02-11T07:28:15;102456.28;;;8.19;38.17
34237;BME280;20501;45.956;13.632;2023-02-11T07:30:40;102462.47;;;7.28;38.80
34237;BME280;20501;45.956;13.632;2023-02-11T07:33:06;102464.53;;;7.79;38.98
34237;BME280;20501;45.956;13.632;2023-02-11T07:35:31;102465.34;;;7.81;38.29
34237;BME280;20501;45.956;13.632;2023-02-11T07:37:56;102455.84;;;6.58;41.26
34237;BME280;20501;45.956;13.632;2023-02-11T07:40:22;102466.09;;;8.02;38.97
34237;BME280;20501;45.956;13.632;2023-02-11T07:42:47;102474.84;;;6.53;38.97
34237;BME280;20501;45.956;13.632;2023-02-11T07:45:12;102473.72;;;4.78;40.15
34237;BME280;20501;45.956;13.632;2023-02-11T07:47:38;102473.16;;;6.50;41.82
34237;BME280;20501;45.956;13.632;2023-02-11T07:50:04;102468.97;;;5.10;40.44
34237;BME280;20501;45.956;13.632;2023-02-11T07:52:31;102465.59;;;5.51;43.78
34237;BME280;20501;45.956;13.632;2023-02-11T07:54:56;102468.72;;;4.92;41.80
34237;BME280;20501;45.956;13.632;2023-02-11T07:57:22;102472.66;;;6.20;39.64
34237;BME280;20501;45.956;13.632;2023-02-11T07:59:47;102466.56;;;5.72;42.97
34237;BME280;20501;45.956;13.632;2023-02-11T08:02:13;102456.41;;;7.81;39.48
34237;BME280;20501;45.956;13.632;2023-02-11T08:04:38;102460.47;;;8.07;38.87
34237;BME280;20501;45.956;13.632;2023-02-11T08:07:03;102460.72;;;8.73;37.77
34237;BME280;20501;45.956;13.632;2023-02-11T08:09:29;102461.69;;;8.54;36.45
34237;BME280;20501;45.956;13.632;2023-02-11T08:11:55;102463.84;;;8.98;35.81
34237;BME280;20501;45.956;13.632;2023-02-11T08:14:20;102466.34;;;9.02;36.89
34237;BME280;20501;45.956;13.632;2023-02-11T08:16:46;102472.06;;;6.34;36.77
34237;BME280;20501;45.956;13.632;2023-02-11T08:19:14;102462.78;;;7.78;38.22
34237;BME280;20501;45.956;13.632;2023-02-11T08:21:39;102459.53;;;6.76;39.82
34237;BME280;20501;45.956;13.632;2023-02-11T08:24:06;102462.19;;;7.90;39.33
34237;BME280;20501;45.956;13.632;2023-02-11T08:26:32;102465.72;;;6.97;39.77
34237;BME280;20501;45.956;13.632;2023-02-11T08:28:59;102464.38;;;8.36;36.34
34237;BME280;20501;45.956;13.632;2023-02-11T08:31:31;102473.56;;;6.21;38.34
34237;BME280;20501;45.956;13.632;2023-02-11T08:33:57;102476.06;;;8.00;37.93
34237;BME280;20501;45.956;13.632;2023-02-11T08:36:25;102470.13;;;8.11;36.73
34237;BME280;20501;45.956;13.632;2023-02-11T08:38:53;102471.19;;;8.79;37.84
34237;BME280;20501;45.956;13.632;2023-02-11T08:41:19;102480.81;;;9.01;34.58
34237;BME280;20501;45.956;13.632;2023-02-11T08:43:45;102477.31;;;7.18;35.94
34237;BME280;20501;45.956;13.632;2023-02-11T08:46:12;102477.00;;;7.05;37.45
34237;BME280;20501;45.956;13.632;2023-02-11T08:48:38;102465.34;;;8.53;36.19
34237;BME280;20501;45.956;13.632;2023-02-11T08:51:08;102463.09;;;8.44;35.43
34237;BME280;20501;45.956;13.632;2023-02-11T08:53:35;102462.69;;;7.24;35.52
34237;BME280;20501;45.956;13.632;2023-02-11T08:56:01;102458.06;;;7.83;35.64
34237;BME280;20501;45.956;13.632;2023-02-11T08:58:26;102460.28;;;7.75;34.68
34237;BME280;20501;45.956;13.632;2023-02-11T09:00:52;102457.94;;;8.04;34.32
34237;BME280;20501;45.956;13.632;2023-02-11T09:03:17;102454.13;;;8.43;33.61
34237;BME280;20501;45.956;13.632;2023-02-11T09:05:44;102456.13;;;8.75;37.20
34237;BME280;20501;45.956;13.632;2023-02-11T09:08:10;102451.94;;;9.19;35.68
34237;BME280;20501;45.956;13.632;2023-02-11T09:10:36;102452.03;;;9.17;35.03
34237;BME280;20501;45.956;13.632;2023-02-11T09:13:01;102461.94;;;8.49;33.78
34237;BME280;20501;45.956;13.632;2023-02-11T09:15:27;102463.63;;;9.35;36.53
34237;BME280;20501;45.956;13.632;2023-02-11T09:17:52;102457.31;;;9.19;34.44
34237;BME280;20501;45.956;13.632;2023-02-11T09:20:18;102462.03;;;9.63;36.30
34237;BME280;20501;45.956;13.632;2023-02-11T09:22:43;102462.34;;;8.93;34.02
34237;BME280;20501;45.956;13.632;2023-02-11T09:25:09;102467.13;;;9.04;34.09
34237;BME280;20501;45.956;13.632;2023-02-11T09:27:35;102469.53;;;9.42;36.86
34237;BME280;20501;45.956;13.632;2023-02-11T09:30:00;102463.72;;;9.50;34.76
34237;BME280;20501;45.956;13.632;2023-02-11T09:32:26;102464.69;;;9.65;35.92
34237;BME280;20501;45.956;13.632;2023-02-11T09:34:51;102459.78;;;9.87;36.13
34237;BME280;20501;45.956;13.632;2023-02-11T09:37:17;102460.28;;;9.78;35.35
34237;BME280;20501;45.956;13.632;2023-02-11T09:39:42;102464.84;;;9.78;36.32
34237;BME280;20501;45.956;13.632;2023-02-11T09:42:46;102461.88;;;9.66;36.27
34237;BME280;20501;45.956;13.632;2023-02-11T09:45:25;102463.72;;;9.82;36.57
34237;BME280;20501;45.956;13.632;2023-02-11T09:50:27;102460.66;;;8.57;33.98
34237;BME280;20501;45.956;13.632;2023-02-11T09:53:08;102453.56;;;8.89;38.19
34237;BME280;20501;45.956;13.632;2023-02-11T09:55:39;102457.88;;;9.41;36.54
34237;BME280;20501;45.956;13.632;2023-02-11T09:58:26;102453.66;;;8.70;37.25
34237;BME280;20501;45.956;13.632;2023-02-11T10:09:00;102450.47;;;9.61;36.51
34237;BME280;20501;45.956;13.632;2023-02-11T10:11:35;102457.84;;;8.41;35.19
34237;BME280;20501;45.956;13.632;2023-02-11T10:14:27;102452.16;;;9.32;35.81
34237;BME280;20501;45.956;13.632;2023-02-11T10:22:45;102459.34;;;9.31;37.60
34237;BME280;20501;45.956;13.632;2023-02-11T10:25:35;102458.13;;;9.37;35.10
34237;BME280;20501;45.956;13.632;2023-02-11T10:28:14;102460.34;;;8.96;36.72
34237;BME280;20501;45.956;13.632;2023-02-11T10:33:58;102459.03;;;9.53;36.99
34237;BME280;20501;45.956;13.632;2023-02-11T10:36:32;102459.28;;;9.33;35.27
34237;BME280;20501;45.956;13.632;2023-02-11T10:41:37;102452.31;;;9.44;35.25
34237;BME280;20501;45.956;13.632;2023-02-11T10:44:05;102459.69;;;8.23;32.36
34237;BME280;20501;45.956;13.632;2023-02-11T10:46:35;102453.47;;;8.57;37.61
34237;BME280;20501;45.956;13.632;2023-02-11T10:49:02;102454.72;;;8.50;34.20
34237;BME280;20501;45.956;13.632;2023-02-11T10:51:29;102444.19;;;9.12;35.99
34237;BME280;20501;45.956;13.632;2023-02-11T10:56:39;102439.34;;;9.35;33.15
34237;BME280;20501;45.956;13.632;2023-02-11T10:59:32;102430.09;;;9.23;32.43
34237;BME280;20501;45.956;13.632;2023-02-11T11:02:00;102429.16;;;9.24;32.44
34237;BME280;20501;45.956;13.632;2023-02-11T11:06:56;102415.41;;;9.77;34.30
34237;BME280;20501;45.956;13.632;2023-02-11T11:09:29;102414.97;;;9.53;31.37
34237;BME280;20501;45.956;13.632;2023-02-11T11:11:55;102409.25;;;9.43;31.89
34237;BME280;20501;45.956;13.632;2023-02-11T11:14:22;102404.31;;;9.82;35.37
34237;BME280;20501;45.956;13.632;2023-02-11T11:16:53;102395.22;;;9.83;34.78
34237;BME280;20501;45.956;13.632;2023-02-11T11:19:22;102400.19;;;9.90;36.48
34237;BME280;20501;45.956;13.632;2023-02-11T11:21:56;102392.69;;;9.96;35.45
34237;BME280;20501;45.956;13.632;2023-02-11T11:24:32;102397.06;;;9.82;32.45
34237;BME280;20501;45.956;13.632;2023-02-11T11:27:05;102384.19;;;9.25;31.33
34237;BME280;20501;45.956;13.632;2023-02-11T11:29:48;102383.81;;;9.47;35.52
34237;BME280;20501;45.956;13.632;2023-02-11T11:32:21;102388.63;;;9.72;36.47
34237;BME280;20501;45.956;13.632;2023-02-11T11:34:50;102385.16;;;9.24;32.11
34237;BME280;20501;45.956;13.632;2023-02-11T11:37:21;102381.53;;;9.71;36.80
34237;BME280;20501;45.956;13.632;2023-02-11T11:42:40;102386.97;;;10.16;36.47
34237;BME280;20501;45.956;13.632;2023-02-11T11:56:04;102366.19;;;10.47;30.30
34237;BME280;20501;45.956;13.632;2023-02-11T11:58:32;102370.91;;;10.44;30.23
34237;BME280;20501;45.956;13.632;2023-02-11T12:06:19;102362.28;;;11.09;29.46
34237;BME280;20501;45.956;13.632;2023-02-11T12:09:18;102362.91;;;11.55;30.78
34237;BME280;20501;45.956;13.632;2023-02-11T12:14:42;102365.81;;;11.24;29.37
34237;BME280;20501;45.956;13.632;2023-02-11T12:25:53;102346.72;;;12.08;29.18
34237;BME280;20501;45.956;13.632;2023-02-11T12:29:02;102352.03;;;11.69;31.46
34237;BME280;20501;45.956;13.632;2023-02-11T12:56:37;102297.84;;;11.02;29.23
34237;BME280;20501;45.956;13.632;2023-02-11T12:59:12;102290.78;;;10.72;29.95
34237;BME280;20501;45.956;13.632;2023-02-11T13:01:42;102289.16;;;10.69;29.75
34237;BME280;20501;45.956;13.632;2023-02-11T13:04:24;102281.03;;;10.69;30.40
34237;BME280;20501;45.956;13.632;2023-02-11T13:06:56;102280.47;;;10.20;30.49
34237;BME280;20501;45.956;13.632;2023-02-11T13:09:31;102273.16;;;10.51;30.80
34237;BME280;20501;45.956;13.632;2023-02-11T13:12:02;102285.41;;;10.57;31.36
34237;BME280;20501;45.956;13.632;2023-02-11T13:14:51;102278.06;;;10.59;30.40
34237;BME280;20501;45.956;13.632;2023-02-11T13:17:26;102267.84;;;10.64;31.47
34237;BME280;20501;45.956;13.632;2023-02-11T13:20:00;102254.56;;;10.47;33.49
34237;BME280;20501;45.956;13.632;2023-02-11T13:22:34;102255.09;;;10.52;30.31
34237;BME280;20501;45.956;13.632;2023-02-11T13:27:53;102245.44;;;10.62;29.74
34237;BME280;20501;45.956;13.632;2023-02-11T13:30:35;102232.88;;;10.61;29.59
34237;BME280;20501;45.956;13.632;2023-02-11T13:33:17;102231.16;;;10.60;29.67
34237;BME280;20501;45.956;13.632;2023-02-11T13:36:10;102245.44;;;10.62;29.37
34237;BME280;20501;45.956;13.632;2023-02-11T13:38:36;102238.03;;;10.37;28.43
34237;BME280;20501;45.956;13.632;2023-02-11T13:43:33;102230.97;;;10.49;29.15
34237;BME280;20501;45.956;13.632;2023-02-11T13:48:30;102233.00;;;10.60;31.81
34237;BME280;20501;45.956;13.632;2023-02-11T13:51:16;102232.53;;;10.53;34.61
34237;BME280;20501;45.956;13.632;2023-02-11T13:53:46;102227.63;;;10.31;30.10
34237;BME280;20501;45.956;13.632;2023-02-11T13:58:49;102227.91;;;10.55;30.03
34237;BME280;20501;45.956;13.632;2023-02-11T14:04:32;102223.66;;;10.22;30.21
34237;BME280;20501;45.956;13.632;2023-02-11T14:15:46;102230.50;;;10.42;32.95
34237;BME280;20501;45.956;13.632;2023-02-11T14:26:58;102227.06;;;10.40;34.21
34237;BME280;20501;45.956;13.632;2023-02-11T14:29:48;102228.50;;;10.46;34.85
34237;BME280;20501;45.956;13.632;2023-02-11T14:37:50;102213.81;;;10.35;31.22
34237;BME280;20501;45.956;13.632;2023-02-11T14:40:49;102208.81;;;10.44;30.92
34237;BME280;20501;45.956;13.632;2023-02-11T14:43:23;102207.25;;;10.40;33.75
34237;BME280;20501;45.956;13.632;2023-02-11T14:45:53;102209.75;;;10.28;30.94
34237;BME280;20501;45.956;13.632;2023-02-11T14:48:24;102207.53;;;10.35;32.13
34237;BME280;20501;45.956;13.632;2023-02-11T14:50:56;102211.41;;;10.31;31.17
34237;BME280;20501;45.956;13.632;2023-02-11T14:53:24;102211.09;;;10.50;34.97
34237;BME280;20501;45.956;13.632;2023-02-11T14:55:51;102206.41;;;10.39;32.09
34237;BME280;20501;45.956;13.632;2023-02-11T15:08:49;102203.22;;;9.89;31.39
34237;BME280;20501;45.956;13.632;2023-02-11T15:11:17;102200.69;;;9.86;31.66
34237;BME280;20501;45.956;13.632;2023-02-11T15:13:43;102200.81;;;9.84;32.04
34237;BME280;20501;45.956;13.632;2023-02-11T15:16:13;102206.41;;;9.96;31.83
34237;BME280;20501;45.956;13.632;2023-02-11T15:18:45;102205.53;;;9.95;31.91
34237;BME280;20501;45.956;13.632;2023-02-11T15:21:11;102205.91;;;10.32;35.14
34237;BME280;20501;45.956;13.632;2023-02-11T15:23:37;102202.16;;;10.06;31.02
34237;BME280;20501;45.956;13.632;2023-02-11T15:26:12;102204.16;;;10.17;32.49
34237;BME280;20501;45.956;13.632;2023-02-11T15:28:37;102202.84;;;10.24;33.45
34237;BME280;20501;45.956;13.632;2023-02-11T15:31:11;102203.50;;;10.13;32.24
34237;BME280;20501;45.956;13.632;2023-02-11T15:33:47;102200.50;;;10.32;35.48
34237;BME280;20501;45.956;13.632;2023-02-11T15:36:14;102205.91;;;10.32;36.53
34237;BME280;20501;45.956;13.632;2023-02-11T15:38:39;102203.59;;;10.12;35.48
34237;BME280;20501;45.956;13.632;2023-02-11T15:41:06;102214.78;;;10.20;37.09
34237;BME280;20501;45.956;13.632;2023-02-11T15:43:44;102216.72;;;10.32;36.15
34237;BME280;20501;45.956;13.632;2023-02-11T15:46:14;102211.00;;;10.37;37.01
34237;BME280;20501;45.956;13.632;2023-02-11T15:48:43;102205.59;;;10.22;34.30